createdAt,value
2018-10-11T00:01:18.105Z,23.77
2018-10-11T00:03:45.206Z,21.53
2018-10-11T00:06:12.842Z,23.00
2018-10-11T00:08:40.025Z,23.23
2018-10-11T00:11:07.232Z,22.37
2018-10-11T00:13:34.374Z,22.40
2018-10-11T00:16:01.626Z,23.03
2018-10-11T00:18:28.807Z,21.73
2018-10-11T00:20:56.004Z,23.23
2018-10-11T00:23:23.157Z,21.37
2018-10-11T00:25:50.316Z,21.83
2018-10-11T00:28:17.510Z,24.00
2018-10-11T00:30:44.782Z,21.20
2018-10-11T00:33:11.836Z,24.00
2018-10-11T00:35:39.064Z,22.37
2018-10-11T00:38:06.233Z,22.30
2018-10-11T00:40:33.409Z,23.17
2018-10-11T00:43:00.593Z,22.87
2018-10-11T00:45:27.867Z,24.03
2018-10-11T00:47:55.128Z,22.90
2018-10-11T00:50:22.488Z,22.60
2018-10-11T00:52:49.705Z,23.60
2018-10-11T00:55:16.885Z,23.63
2018-10-11T00:57:44.148Z,22.63
2018-10-11T01:00:11.412Z,20.80
2018-10-11T01:02:38.612Z,23.20
2018-10-11T01:05:06.199Z,22.43
2018-10-11T01:07:33.372Z,22.93
2018-10-11T01:10:00.568Z,24.07
2018-10-11T01:12:27.701Z,22.50
2018-10-11T01:14:54.919Z,22.97
2018-10-11T01:17:22.203Z,22.43
2018-10-11T01:19:49.352Z,22.30
2018-10-11T01:22:16.672Z,22.03
2018-10-11T01:24:43.831Z,22.40
2018-10-11T01:27:11.049Z,22.40
2018-10-11T01:29:38.335Z,22.00
2018-10-11T01:32:05.943Z,22.07
2018-10-11T01:34:33.117Z,23.03
2018-10-11T01:37:02.473Z,22.77
2018-10-11T01:39:29.863Z,24.37
2018-10-11T01:41:57.102Z,22.40
2018-10-11T01:44:28.067Z,22.60
2018-10-11T01:46:55.363Z,23.40
2018-10-11T01:49:22.571Z,21.93
2018-10-11T01:51:49.925Z,25.30
2018-10-11T01:54:17.997Z,23.30
2018-10-11T01:56:45.178Z,25.43
2018-10-11T01:59:12.220Z,22.23
2018-10-11T02:01:39.538Z,21.80
2018-10-11T02:04:07.244Z,22.90
2018-10-11T02:06:34.421Z,22.37
2018-10-11T02:09:01.834Z,24.00
2018-10-11T02:11:29.059Z,24.20
2018-10-11T02:13:56.310Z,24.90
2018-10-11T02:16:23.437Z,22.80
2018-10-11T02:18:50.641Z,23.90
2018-10-11T02:21:17.809Z,22.73
2018-10-11T02:23:45.134Z,23.50
2018-10-11T02:26:12.284Z,22.97
2018-10-11T02:28:39.578Z,23.57
2018-10-11T02:31:06.707Z,23.70
2018-10-11T02:33:33.936Z,25.80
2018-10-11T02:36:01.292Z,23.20
2018-10-11T02:38:29.579Z,22.93
2018-10-11T02:40:56.833Z,23.00
2018-10-11T02:43:24.222Z,24.03
2018-10-11T02:45:51.480Z,23.13
2018-10-11T02:48:18.783Z,24.47
2018-10-11T02:50:45.970Z,24.87
2018-10-11T02:53:13.488Z,25.30
2018-10-11T02:55:40.812Z,25.13
2018-10-11T02:58:19.516Z,24.87
2018-10-11T03:00:46.742Z,24.70
2018-10-11T03:03:14.290Z,23.87
2018-10-11T03:05:42.765Z,23.87
2018-10-11T03:08:12.813Z,24.10
2018-10-11T03:10:40.200Z,24.40
2018-10-11T03:13:09.505Z,23.33
2018-10-11T03:15:36.706Z,24.67
2018-10-11T03:18:04.058Z,25.60
2018-10-11T03:20:31.332Z,24.83
2018-10-11T03:22:58.536Z,23.70
2018-10-11T03:25:26.323Z,23.60
2018-10-11T03:27:53.557Z,25.67
2018-10-11T03:30:20.815Z,24.53
2018-10-11T03:32:48.033Z,24.60
2018-10-11T03:35:15.166Z,27.70
2018-10-11T03:37:42.364Z,25.47
2018-10-11T03:40:09.562Z,25.30
2018-10-11T03:42:36.727Z,26.43
2018-10-11T03:45:04.051Z,25.80
2018-10-11T03:47:31.290Z,27.57
2018-10-11T03:49:58.509Z,27.43
2018-10-11T03:52:25.817Z,26.17
2018-10-11T03:54:53.037Z,25.30
2018-10-11T03:57:20.413Z,26.50
2018-10-11T03:59:47.699Z,26.50
2018-10-11T04:02:14.962Z,27.07
2018-10-11T04:04:42.219Z,28.03
2018-10-11T04:07:09.526Z,28.57
2018-10-11T04:09:36.719Z,28.33
2018-10-11T04:12:03.916Z,28.00
2018-10-11T04:14:31.115Z,28.33
2018-10-11T04:16:58.315Z,26.80
2018-10-11T04:19:25.483Z,25.80
2018-10-11T04:21:52.699Z,28.10
2018-10-11T04:24:19.975Z,26.60
2018-10-11T04:26:47.164Z,27.47
2018-10-11T04:29:14.441Z,28.20
2018-10-11T04:31:41.622Z,27.80
2018-10-11T04:34:09.096Z,30.10
2018-10-11T04:36:36.331Z,28.73
2018-10-11T04:39:05.101Z,27.57
2018-10-11T04:41:32.226Z,30.93
2018-10-11T04:43:59.515Z,26.43
2018-10-11T04:46:26.747Z,28.53
2018-10-11T04:48:53.939Z,28.17
2018-10-11T04:51:21.832Z,30.03
2018-10-11T04:53:54.014Z,29.83
2018-10-11T04:56:21.891Z,26.80
2018-10-11T04:58:49.123Z,27.93
2018-10-11T05:01:16.478Z,27.33
2018-10-11T05:03:43.664Z,29.90
2018-10-11T05:06:11.503Z,28.90
2018-10-11T05:08:38.796Z,28.57
2018-10-11T05:11:06.234Z,27.60
2018-10-11T05:13:41.509Z,27.70
2018-10-11T05:16:08.844Z,27.10
2018-10-11T05:18:38.518Z,29.10
2018-10-11T05:21:05.923Z,29.90
2018-10-11T05:23:33.188Z,29.20
2018-10-11T05:26:00.510Z,29.17
2018-10-11T05:28:27.705Z,28.67
2018-10-11T05:30:55.117Z,29.60
2018-10-11T05:33:22.579Z,29.27
2018-10-11T05:35:49.989Z,29.03
2018-10-11T05:38:17.290Z,29.17
2018-10-11T05:40:44.449Z,28.70
2018-10-11T05:43:16.956Z,28.47
2018-10-11T05:45:51.601Z,28.03
2018-10-11T05:48:19.009Z,31.00
2018-10-11T05:50:46.458Z,28.40
2018-10-11T05:53:13.935Z,28.17
2018-10-11T05:55:41.301Z,28.30
2018-10-11T05:58:08.556Z,29.43
2018-10-11T06:00:36.930Z,29.07
2018-10-11T06:03:04.200Z,30.67
2018-10-11T06:05:31.803Z,30.50
2018-10-11T06:08:00.377Z,29.63
2018-10-11T06:10:28.857Z,30.63
2018-10-11T06:12:56.138Z,29.23
2018-10-11T06:15:23.767Z,27.37
2018-10-11T06:17:51.019Z,31.80
2018-10-11T06:20:18.193Z,30.90
2018-10-11T06:22:45.872Z,31.73
2018-10-11T06:25:13.191Z,31.13
2018-10-11T06:27:41.167Z,30.53
2018-10-11T06:30:09.981Z,30.50
2018-10-11T06:32:37.246Z,30.23
2018-10-11T06:35:06.598Z,28.77
2018-10-11T06:37:33.783Z,28.77
2018-10-11T06:40:01.069Z,28.50
2018-10-11T06:42:28.547Z,29.20
2018-10-11T06:44:56.656Z,31.97
2018-10-11T06:47:24.407Z,30.00
2018-10-11T06:49:51.864Z,30.30
2018-10-11T06:52:19.178Z,30.77
2018-10-11T06:54:46.554Z,30.80
2018-10-11T06:57:13.779Z,31.57
2018-10-11T06:59:43.051Z,31.33
2018-10-11T07:02:10.374Z,30.27
2018-10-11T07:04:37.678Z,31.73
2018-10-11T07:07:04.905Z,30.63
2018-10-11T07:09:32.139Z,29.23
2018-10-11T07:11:59.471Z,32.63
2018-10-11T07:14:27.015Z,33.77
2018-10-11T07:16:54.319Z,34.30
2018-10-11T07:19:21.649Z,32.40
2018-10-11T07:21:48.855Z,30.30
2018-10-11T07:24:16.131Z,32.43
2018-10-11T07:26:43.334Z,33.77
2018-10-11T07:29:10.645Z,32.40
2018-10-11T07:31:37.826Z,32.27
2018-10-11T07:34:05.003Z,31.10
2018-10-11T07:36:32.319Z,30.20
2018-10-11T07:38:59.565Z,30.90
2018-10-11T07:41:26.947Z,30.97
2018-10-11T07:43:54.130Z,34.10
2018-10-11T07:46:22.245Z,32.77
2018-10-11T07:48:49.514Z,30.50
2018-10-11T07:51:16.712Z,30.10
2018-10-11T07:53:43.957Z,28.90
2018-10-11T07:56:11.185Z,31.30
2018-10-11T07:58:40.656Z,29.13
2018-10-11T08:01:07.903Z,30.50
2018-10-11T08:03:35.275Z,30.10
2018-10-11T08:06:02.365Z,28.40
2018-10-11T08:08:29.635Z,28.33
2018-10-11T08:10:56.907Z,28.80
2018-10-11T08:13:24.087Z,31.60
2018-10-11T08:15:51.344Z,28.33
2018-10-11T08:18:23.237Z,29.43
2018-10-11T08:20:50.469Z,28.20
2018-10-11T08:23:17.699Z,28.47
2018-10-11T08:25:45.448Z,25.07
2018-10-11T08:28:19.143Z,25.20
2018-10-11T08:30:46.478Z,26.80
2018-10-11T08:33:13.737Z,25.17
2018-10-11T08:35:40.887Z,25.63
2018-10-11T08:38:08.929Z,25.10
2018-10-11T08:40:36.101Z,24.47
2018-10-11T08:43:03.405Z,24.50
2018-10-11T08:45:30.665Z,24.77
2018-10-11T08:47:57.806Z,22.93
2018-10-11T08:50:25.197Z,25.57
2018-10-11T08:52:52.904Z,24.50
2018-10-11T08:55:20.233Z,26.50
2018-10-11T08:57:47.531Z,24.87
2018-10-11T09:00:14.827Z,24.90
2018-10-11T09:02:42.147Z,23.23
2018-10-11T09:05:09.409Z,23.70
2018-10-11T09:07:36.603Z,22.90
2018-10-11T09:10:03.958Z,23.63
2018-10-11T09:12:31.204Z,23.10
2018-10-11T09:14:58.465Z,23.77
2018-10-11T09:17:25.733Z,24.43
2018-10-11T09:19:52.990Z,25.37
2018-10-11T09:22:20.193Z,24.77
2018-10-11T09:24:47.622Z,24.30
2018-10-11T09:27:14.810Z,24.30
2018-10-11T09:29:42.084Z,25.30
2018-10-11T09:32:09.379Z,26.23
2018-10-11T09:34:36.756Z,25.43
2018-10-11T09:37:05.134Z,24.43
2018-10-11T09:39:32.335Z,28.97
2018-10-11T09:41:59.725Z,26.67
2018-10-11T09:44:27.274Z,25.33
2018-10-11T09:46:54.636Z,26.73
2018-10-11T09:49:21.877Z,26.63
2018-10-11T09:51:49.159Z,24.10
2018-10-11T09:54:16.490Z,29.13
2018-10-11T09:57:18.899Z,28.00
2018-10-11T09:59:46.279Z,24.70
2018-10-11T10:02:14.104Z,25.43
2018-10-11T10:04:42.921Z,27.63
2018-10-11T10:07:10.717Z,24.97
2018-10-11T10:09:38.161Z,25.70
2018-10-11T10:12:05.946Z,25.60
2018-10-11T10:14:35.449Z,26.90
2018-10-11T10:17:03.183Z,27.70
2018-10-11T10:19:30.791Z,26.17
2018-10-11T10:21:58.155Z,26.20
2018-10-11T10:24:25.462Z,25.87
2018-10-11T10:26:52.668Z,26.80
2018-10-11T10:29:19.871Z,26.77
2018-10-11T10:31:47.381Z,26.13
2018-10-11T10:34:14.600Z,26.27
2018-10-11T10:36:41.920Z,28.70
2018-10-11T10:39:09.506Z,27.90
2018-10-11T10:41:36.865Z,26.50
2018-10-11T10:44:04.495Z,27.97
2018-10-11T10:46:31.911Z,25.53
2018-10-11T10:48:59.240Z,26.17
2018-10-11T10:51:26.433Z,25.77
2018-10-11T10:53:53.648Z,26.83
2018-10-11T10:56:21.039Z,25.87
2018-10-11T10:58:48.296Z,27.50
2018-10-11T11:01:15.530Z,26.43
2018-10-11T11:03:42.862Z,29.23
2018-10-11T11:06:10.238Z,25.40
2018-10-11T11:08:39.616Z,26.00
2018-10-11T11:11:06.915Z,25.80
2018-10-11T11:13:34.287Z,25.90
2018-10-11T11:16:01.822Z,25.17
2018-10-11T11:18:29.560Z,24.37
2018-10-11T11:20:57.017Z,25.13
2018-10-11T11:23:24.275Z,26.27
2018-10-11T11:25:51.881Z,26.37
2018-10-11T11:28:19.180Z,30.23
2018-10-11T11:30:46.493Z,27.00
2018-10-11T11:33:14.014Z,26.73
2018-10-11T11:35:41.654Z,25.30
2018-10-11T11:38:09.825Z,25.40
2018-10-11T11:40:37.135Z,25.00
2018-10-11T11:43:04.803Z,24.37
2018-10-11T11:45:32.141Z,24.83
2018-10-11T11:48:00.606Z,26.60
2018-10-11T11:50:28.098Z,26.70
2018-10-11T11:52:56.731Z,26.80
2018-10-11T11:55:24.123Z,25.47
2018-10-11T11:57:52.318Z,22.40
2018-10-11T12:00:21.506Z,24.00
2018-10-11T12:02:49.334Z,25.27
2018-10-11T12:05:18.195Z,23.47
2018-10-11T12:07:45.699Z,24.83
2018-10-11T12:10:12.964Z,26.70
2018-10-11T12:12:57.627Z,22.53
2018-10-11T12:15:26.421Z,24.13
2018-10-11T12:17:56.370Z,24.77
2018-10-11T12:20:26.809Z,23.37
2018-10-11T12:22:55.464Z,22.53
2018-10-11T12:25:22.953Z,23.70
2018-10-11T12:27:50.773Z,22.60
2018-10-11T12:30:18.400Z,22.97
2018-10-11T12:32:46.590Z,22.50
2018-10-11T12:35:14.678Z,22.80
2018-10-11T12:37:42.141Z,22.50
2018-10-11T12:40:09.409Z,21.50
2018-10-11T12:42:37.765Z,23.53
2018-10-11T12:45:06.250Z,24.17
2018-10-11T12:47:41.062Z,22.77
2018-10-11T12:50:09.703Z,24.50
2018-10-11T12:52:37.564Z,23.53
2018-10-11T12:55:05.946Z,22.10
2018-10-11T12:57:33.366Z,23.80
2018-10-11T13:00:00.646Z,22.63
2018-10-11T13:02:28.014Z,22.77
2018-10-11T13:04:55.273Z,21.40
2018-10-11T13:07:23.021Z,20.73
2018-10-11T13:09:50.303Z,20.90
2018-10-11T13:12:17.885Z,23.20
2018-10-11T13:14:45.135Z,20.13
2018-10-11T13:17:12.407Z,20.63
2018-10-11T13:19:40.246Z,20.60
2018-10-11T13:22:07.472Z,20.10
2018-10-11T13:24:38.387Z,19.50
2018-10-11T13:27:02.336Z,21.30
2018-10-11T13:32:03.749Z,23.23
2018-10-11T13:34:30.993Z,19.10
2018-10-11T13:36:58.271Z,19.13
2018-10-11T13:39:25.761Z,18.50
2018-10-11T13:41:53.138Z,18.00
2018-10-11T13:44:20.243Z,19.33
2018-10-11T13:46:47.584Z,20.77
2018-10-11T13:49:14.839Z,18.70
2018-10-11T13:51:42.302Z,20.83
2018-10-11T13:54:14.360Z,19.10
2018-10-11T13:56:41.961Z,20.63
2018-10-11T13:59:14.267Z,19.57
2018-10-11T14:01:37.904Z,17.60
2018-10-11T14:04:07.270Z,18.43
2018-10-11T14:06:34.504Z,19.17
2018-10-11T14:09:01.773Z,18.97
2018-10-11T14:11:29.018Z,19.83
2018-10-11T14:13:56.417Z,18.73
2018-10-11T14:16:23.648Z,20.30
2018-10-11T14:18:51.084Z,18.50
2018-10-11T14:21:19.222Z,19.63
2018-10-11T14:23:46.555Z,18.87
2018-10-11T14:26:15.345Z,18.30
2018-10-11T14:28:42.512Z,17.93
2018-10-11T14:31:09.738Z,18.33
2018-10-11T14:33:37.040Z,18.70
2018-10-11T14:36:04.367Z,18.73
2018-10-11T14:38:31.515Z,18.80
2018-10-11T14:40:59.277Z,17.23
2018-10-11T14:43:26.797Z,18.53
2018-10-11T14:45:54.036Z,19.80
2018-10-11T14:48:21.452Z,17.80
2018-10-11T14:50:48.853Z,18.60
2018-10-11T14:53:16.105Z,16.27
2018-10-11T14:55:43.461Z,17.60
2018-10-11T14:58:10.660Z,18.10
2018-10-11T15:00:37.909Z,18.30
2018-10-11T15:03:05.252Z,20.63
2018-10-11T15:05:32.466Z,18.30
2018-10-11T15:07:59.588Z,19.17
2018-10-11T15:10:26.904Z,18.13
2018-10-11T15:12:54.189Z,18.90
2018-10-11T15:15:22.440Z,16.70
2018-10-11T15:17:50.158Z,18.07
2018-10-11T15:20:17.454Z,17.80
2018-10-11T15:22:44.635Z,20.23
2018-10-11T15:25:11.830Z,19.63
2018-10-11T15:27:39.092Z,17.77
2018-10-11T15:30:06.775Z,21.03
2018-10-11T15:32:34.226Z,20.00
2018-10-11T15:35:01.551Z,19.27
2018-10-11T15:37:29.994Z,17.40
2018-10-11T15:39:57.263Z,17.37
2018-10-11T15:42:24.544Z,18.13
2018-10-11T15:44:51.872Z,18.20
2018-10-11T15:47:19.444Z,18.00
2018-10-11T15:49:46.759Z,16.57
2018-10-11T15:52:14.143Z,18.10
2018-10-11T15:54:41.450Z,18.50
2018-10-11T15:57:09.105Z,19.73
2018-10-11T15:59:37.368Z,18.47
2018-10-11T16:02:05.340Z,17.53
2018-10-11T16:04:32.862Z,17.90
2018-10-11T16:07:01.301Z,17.47
2018-10-11T16:09:28.792Z,17.50
2018-10-11T16:11:56.544Z,17.83
2018-10-11T16:14:24.970Z,19.23
2018-10-11T16:16:52.405Z,17.20
2018-10-11T16:19:19.728Z,19.90
2018-10-11T16:21:47.084Z,18.70
2018-10-11T16:24:14.365Z,19.87
2018-10-11T16:26:42.734Z,19.57
2018-10-11T16:29:11.376Z,19.37
2018-10-11T16:31:39.984Z,18.67
2018-10-11T16:34:07.626Z,20.13
2018-10-11T16:36:35.594Z,18.70
2018-10-11T16:39:04.280Z,20.37
2018-10-11T16:41:32.630Z,22.33
2018-10-11T16:43:59.955Z,24.00
2018-10-11T16:46:27.318Z,20.50
2018-10-11T16:48:54.645Z,22.30
2018-10-11T16:51:21.957Z,20.07
2018-10-11T16:53:49.195Z,21.23
2018-10-11T16:56:16.543Z,21.43
2018-10-11T16:58:43.912Z,20.90
2018-10-11T17:01:11.090Z,20.20
2018-10-11T17:03:38.401Z,21.20
2018-10-11T17:06:05.984Z,19.33
2018-10-11T17:08:33.721Z,19.87
2018-10-11T17:11:01.424Z,21.23
2018-10-11T17:13:28.755Z,22.27
2018-10-11T17:15:56.167Z,24.47
2018-10-11T17:18:23.523Z,20.20
2018-10-11T17:20:50.799Z,21.90
2018-10-11T17:23:18.789Z,21.00
2018-10-11T17:25:46.088Z,22.07
2018-10-11T17:28:13.273Z,21.30
2018-10-11T17:30:40.649Z,22.97
2018-10-11T17:33:08.065Z,22.10
2018-10-11T17:35:35.333Z,21.13
2018-10-11T17:38:02.816Z,22.80
2018-10-11T17:40:30.185Z,22.73
2018-10-11T17:42:57.428Z,22.77
2018-10-11T17:45:25.868Z,21.43
2018-10-11T17:47:53.258Z,22.87
2018-10-11T17:50:20.583Z,23.10
2018-10-11T17:52:47.841Z,24.20
2018-10-11T17:55:15.147Z,24.77
2018-10-11T17:57:42.436Z,24.03
2018-10-11T18:00:10.375Z,26.80
2018-10-11T18:02:38.559Z,24.30
2018-10-11T18:05:06.449Z,25.17
2018-10-11T18:07:33.773Z,23.23
2018-10-11T18:10:01.233Z,24.20
2018-10-11T18:12:28.669Z,23.33
2018-10-11T18:14:55.873Z,23.17
2018-10-11T18:17:23.306Z,22.97
2018-10-11T18:19:50.580Z,23.27
2018-10-11T18:22:17.989Z,23.50
2018-10-11T18:24:46.332Z,24.13
2018-10-11T18:27:13.676Z,23.60
2018-10-11T18:29:41.217Z,21.90
2018-10-11T18:32:08.561Z,22.10
2018-10-11T18:34:35.984Z,21.87
2018-10-11T18:37:03.287Z,19.93
2018-10-11T18:39:32.933Z,22.83
2018-10-11T18:42:00.527Z,22.80
2018-10-11T18:44:28.847Z,22.77
2018-10-11T18:46:56.301Z,22.43
2018-10-11T18:49:25.105Z,23.90
2018-10-11T18:51:52.429Z,23.47
2018-10-11T18:54:20.090Z,23.20
2018-10-11T18:56:47.489Z,23.27
2018-10-11T18:59:24.458Z,23.80
2018-10-11T19:01:51.828Z,22.47
2018-10-11T19:04:19.287Z,23.73
2018-10-11T19:06:46.625Z,24.53
2018-10-11T19:09:20.552Z,24.50
2018-10-11T19:11:47.864Z,25.07
2018-10-11T19:14:15.183Z,25.27
2018-10-11T19:16:44.013Z,25.60
2018-10-11T19:19:11.592Z,24.43
2018-10-11T19:21:38.859Z,24.57
2018-10-11T19:24:06.414Z,24.97
2018-10-11T19:26:34.071Z,26.90
2018-10-11T19:29:02.081Z,26.00
2018-10-11T19:31:29.607Z,24.93
2018-10-11T19:33:56.992Z,28.63
2018-10-11T19:36:24.511Z,25.80
2018-10-11T19:38:52.053Z,25.07
2018-10-11T19:41:19.561Z,24.57
2018-10-11T19:43:46.966Z,25.90
2018-10-11T19:46:14.735Z,24.40
2018-10-11T19:48:42.723Z,24.97
2018-10-11T19:51:10.092Z,26.00
2018-10-11T19:53:37.440Z,24.57
2018-10-11T19:56:05.031Z,24.10
2018-10-11T19:58:32.751Z,27.07
2018-10-11T20:01:00.324Z,25.10
2018-10-11T20:03:27.778Z,23.90
2018-10-11T20:05:55.167Z,24.10
2018-10-11T20:08:26.215Z,27.27
2018-10-11T20:10:53.641Z,23.50
2018-10-11T20:13:24.482Z,24.20
2018-10-11T20:15:51.998Z,25.83
2018-10-11T20:18:19.696Z,22.70
2018-10-11T20:20:47.158Z,24.67
2018-10-11T20:23:14.665Z,24.83
2018-10-11T20:25:42.077Z,25.20
2018-10-11T20:28:09.429Z,29.33
2018-10-11T20:30:37.695Z,26.20
2018-10-11T20:33:05.051Z,24.47
2018-10-11T20:35:33.594Z,27.00
2018-10-11T20:38:00.823Z,24.27
2018-10-11T20:40:28.202Z,24.10
2018-10-11T20:42:55.486Z,23.80
2018-10-11T20:45:22.725Z,25.77
2018-10-11T20:47:54.045Z,26.00
2018-10-11T20:50:21.583Z,25.80
2018-10-11T20:52:49.291Z,25.40
2018-10-11T20:55:16.834Z,26.47
2018-10-11T20:57:44.797Z,25.13
2018-10-11T21:00:12.273Z,26.20
2018-10-11T21:02:39.674Z,26.43
2018-10-11T21:05:06.982Z,26.60
2018-10-11T21:07:34.268Z,24.30
2018-10-11T21:10:01.549Z,22.73
2018-10-11T21:12:28.796Z,23.80
2018-10-11T21:14:56.142Z,27.17
2018-10-11T21:17:23.525Z,27.03
2018-10-11T21:19:50.907Z,27.97
2018-10-11T21:22:18.413Z,26.10
2018-10-11T21:24:45.976Z,24.40
2018-10-11T21:27:13.315Z,27.73
2018-10-11T21:29:40.880Z,26.70
2018-10-11T21:32:08.230Z,29.17
2018-10-11T21:34:35.721Z,27.93
2018-10-11T21:37:03.000Z,28.43
2018-10-11T21:39:34.024Z,29.43
2018-10-11T21:42:01.357Z,28.53
2018-10-11T21:44:28.629Z,27.83
2018-10-11T21:46:55.941Z,26.90
2018-10-11T21:49:23.525Z,30.10
2018-10-11T21:51:51.057Z,28.17
2018-10-11T21:54:18.585Z,30.77
2018-10-11T21:56:46.177Z,29.20
2018-10-11T21:59:17.503Z,27.63
2018-10-11T22:01:44.759Z,29.17
2018-10-11T22:04:12.485Z,27.37
2018-10-11T22:06:40.607Z,26.20
2018-10-11T22:09:08.079Z,25.00
2018-10-11T22:11:35.365Z,24.67
2018-10-11T22:14:02.765Z,27.40
2018-10-11T22:16:30.181Z,26.97
2018-10-11T22:18:57.690Z,25.60
2018-10-11T22:21:28.608Z,27.00
2018-10-11T22:23:55.880Z,26.13
2018-10-11T22:26:23.168Z,29.83
2018-10-11T22:28:50.455Z,29.70
2018-10-11T22:31:17.752Z,26.13
2018-10-11T22:33:45.798Z,27.63
2018-10-11T22:36:13.343Z,27.50
2018-10-11T22:38:43.765Z,27.60
2018-10-11T22:41:13.307Z,29.00
2018-10-11T22:43:41.168Z,28.40
2018-10-11T22:46:08.422Z,28.73
2018-10-11T22:48:35.732Z,28.17
2018-10-11T22:51:11.174Z,29.23
2018-10-11T22:53:39.668Z,29.10
2018-10-11T22:56:08.155Z,29.53
2018-10-11T22:58:36.414Z,27.80
2018-10-11T23:01:05.369Z,27.13
2018-10-11T23:03:35.386Z,27.70
2018-10-11T23:06:03.224Z,27.90
2018-10-11T23:08:31.599Z,28.00
2018-10-11T23:10:58.919Z,27.50
2018-10-11T23:13:26.275Z,28.33
2018-10-11T23:15:53.753Z,26.77
2018-10-11T23:18:21.034Z,28.43
2018-10-11T23:20:48.582Z,27.90
2018-10-11T23:23:15.911Z,27.60
2018-10-11T23:25:43.142Z,28.63
2018-10-11T23:28:14.236Z,28.07
2018-10-11T23:30:41.785Z,27.27
2018-10-11T23:33:08.948Z,27.90
2018-10-11T23:35:36.256Z,28.10
2018-10-11T23:38:03.998Z,28.37
2018-10-11T23:40:31.284Z,28.37
2018-10-11T23:42:58.580Z,29.70
2018-10-11T23:45:25.804Z,29.07
2018-10-11T23:47:53.135Z,27.90
2018-10-11T23:50:20.501Z,27.47
2018-10-11T23:52:47.810Z,27.50
2018-10-11T23:55:15.045Z,26.87
2018-10-11T23:57:42.557Z,27.93
